createdAt,value
2019-03-31T00:02:07.112Z,68.13
2019-03-31T00:04:35.567Z,68.52
2019-03-31T00:07:04.054Z,68.00
2019-03-31T00:09:32.498Z,68.01
2019-03-31T00:12:00.970Z,67.60
2019-03-31T00:14:29.442Z,68.32
2019-03-31T00:16:57.962Z,68.73
2019-03-31T00:19:26.500Z,68.96
2019-03-31T00:21:54.934Z,69.73
2019-03-31T00:24:23.407Z,70.15
2019-03-31T00:26:51.853Z,69.78
2019-03-31T00:29:20.298Z,70.20
2019-03-31T00:31:48.773Z,69.99
2019-03-31T00:34:17.282Z,69.14
2019-03-31T00:36:45.738Z,69.66
2019-03-31T00:39:14.222Z,70.28
2019-03-31T00:41:42.684Z,70.79
2019-03-31T00:44:11.156Z,70.42
2019-03-31T00:46:39.596Z,70.16
2019-03-31T00:49:08.039Z,70.40
2019-03-31T00:51:36.496Z,70.88
2019-03-31T00:54:05.103Z,70.23
2019-03-31T00:56:33.559Z,69.93
2019-03-31T00:59:02.043Z,70.38
2019-03-31T01:01:36.703Z,71.26
2019-03-31T01:04:05.417Z,70.88
2019-03-31T01:06:34.277Z,70.81
2019-03-31T01:09:04.966Z,70.78
2019-03-31T01:11:33.461Z,70.66
2019-03-31T01:14:01.934Z,70.67
2019-03-31T01:16:31.642Z,70.47
2019-03-31T01:19:00.259Z,70.71
2019-03-31T01:21:28.717Z,70.72
2019-03-31T01:23:57.157Z,71.06
2019-03-31T01:26:25.589Z,71.61
2019-03-31T01:28:54.054Z,71.03
2019-03-31T01:31:22.763Z,71.34
2019-03-31T01:33:51.240Z,71.50
2019-03-31T01:36:19.699Z,71.59
2019-03-31T01:38:48.168Z,70.34
2019-03-31T01:41:16.869Z,69.61
2019-03-31T01:43:45.308Z,69.59
2019-03-31T01:46:15.193Z,69.24
2019-03-31T01:48:43.640Z,68.80
2019-03-31T01:51:12.118Z,68.95
2019-03-31T01:53:40.590Z,68.71
2019-03-31T01:56:09.075Z,68.74
2019-03-31T01:58:37.514Z,68.95
2019-03-31T02:01:08.161Z,69.21
2019-03-31T02:03:36.616Z,69.37
2019-03-31T02:06:05.083Z,69.52
2019-03-31T02:08:33.533Z,69.65
2019-03-31T02:11:01.971Z,69.70
2019-03-31T02:13:30.442Z,70.06
2019-03-31T02:15:59.159Z,70.09
2019-03-31T02:18:27.627Z,70.46
2019-03-31T02:20:56.099Z,70.36
2019-03-31T02:23:24.602Z,70.50
2019-03-31T02:25:53.063Z,70.81
2019-03-31T02:28:21.555Z,71.12
2019-03-31T02:30:50.743Z,71.22
2019-03-31T02:33:19.197Z,71.71
2019-03-31T02:35:47.629Z,71.84
2019-03-31T02:38:16.097Z,72.29
2019-03-31T02:40:44.555Z,72.47
2019-03-31T02:43:12.989Z,72.65
2019-03-31T02:45:41.452Z,72.52
2019-03-31T02:48:09.932Z,72.91
2019-03-31T02:50:50.111Z,73.12
2019-03-31T02:53:19.525Z,73.31
2019-03-31T02:55:48.915Z,73.06
2019-03-31T02:58:19.373Z,73.81
2019-03-31T03:00:48.105Z,73.69
2019-03-31T03:03:17.455Z,74.23
2019-03-31T03:05:46.662Z,74.17
2019-03-31T03:08:17.001Z,74.15
2019-03-31T03:10:45.627Z,74.15
2019-03-31T03:13:15.038Z,74.67
2019-03-31T03:16:07.419Z,74.78
2019-03-31T03:18:35.854Z,74.70
2019-03-31T03:21:04.313Z,74.68
2019-03-31T03:23:32.809Z,75.19
2019-03-31T03:26:01.274Z,75.03
2019-03-31T03:28:29.717Z,75.59
2019-03-31T03:30:58.388Z,75.49
2019-03-31T03:33:26.934Z,75.47
2019-03-31T03:35:55.365Z,75.47
2019-03-31T03:38:23.869Z,74.99
2019-03-31T03:40:52.353Z,74.99
2019-03-31T03:43:20.817Z,74.97
2019-03-31T03:45:49.274Z,74.80
2019-03-31T03:48:17.743Z,75.12
2019-03-31T03:50:46.311Z,75.12
2019-03-31T03:53:14.830Z,75.56
2019-03-31T03:55:43.271Z,75.56
2019-03-31T03:58:11.757Z,75.60
2019-03-31T04:00:40.225Z,76.24
2019-03-31T04:03:08.656Z,76.22
2019-03-31T04:05:37.130Z,76.22
2019-03-31T04:08:05.632Z,76.29
2019-03-31T04:10:46.015Z,76.29
2019-03-31T04:13:14.795Z,76.60
2019-03-31T04:15:43.519Z,77.27
2019-03-31T04:18:11.978Z,77.29
2019-03-31T04:20:40.427Z,77.77
2019-03-31T04:23:08.853Z,78.02
2019-03-31T04:25:37.304Z,77.97
2019-03-31T04:28:05.763Z,77.80
2019-03-31T04:30:34.187Z,77.90
2019-03-31T04:33:02.647Z,78.34
2019-03-31T04:35:31.098Z,78.45
2019-03-31T04:37:59.561Z,78.40
2019-03-31T04:40:28.028Z,78.61
2019-03-31T04:42:56.489Z,78.52
2019-03-31T04:45:24.963Z,78.75
2019-03-31T04:47:53.418Z,78.73
2019-03-31T04:50:21.866Z,78.92
2019-03-31T04:52:50.347Z,78.63
2019-03-31T04:55:18.795Z,79.04
2019-03-31T04:57:47.251Z,79.11
2019-03-31T05:00:15.687Z,79.19
2019-03-31T05:02:44.123Z,79.39
2019-03-31T05:05:12.581Z,79.47
2019-03-31T05:07:41.063Z,79.47
2019-03-31T05:10:09.786Z,79.93
2019-03-31T05:12:38.268Z,79.84
2019-03-31T05:15:07.042Z,80.11
2019-03-31T05:17:36.045Z,80.13
2019-03-31T05:20:05.773Z,79.92
2019-03-31T05:22:34.285Z,80.02
2019-03-31T05:25:02.807Z,79.96
2019-03-31T05:27:31.267Z,80.11
2019-03-31T05:29:59.704Z,80.07
2019-03-31T05:32:28.141Z,79.85
2019-03-31T05:34:56.618Z,80.17
2019-03-31T05:37:25.069Z,80.12
2019-03-31T05:39:53.507Z,79.99
2019-03-31T05:42:21.967Z,80.35
2019-03-31T05:44:50.400Z,80.54
2019-03-31T05:47:18.862Z,80.14
2019-03-31T05:49:47.369Z,80.37
2019-03-31T05:52:15.811Z,80.12
2019-03-31T05:54:44.245Z,80.14
2019-03-31T05:57:13.003Z,81.31
2019-03-31T05:59:41.450Z,81.82
2019-03-31T06:02:09.917Z,81.33
2019-03-31T06:04:38.389Z,80.83
2019-03-31T06:07:06.816Z,80.73
2019-03-31T06:09:35.331Z,81.03
2019-03-31T06:12:03.724Z,80.87
2019-03-31T06:14:32.178Z,80.54
2019-03-31T06:17:00.629Z,79.70
2019-03-31T06:19:29.084Z,79.91
2019-03-31T06:21:57.521Z,79.51
2019-03-31T06:24:25.951Z,79.38
2019-03-31T06:26:54.469Z,79.39
2019-03-31T06:29:22.909Z,78.81
2019-03-31T06:31:51.394Z,79.44
2019-03-31T06:34:19.939Z,79.34
2019-03-31T06:36:48.429Z,78.91
2019-03-31T06:39:16.891Z,78.75
2019-03-31T06:41:45.346Z,78.89
2019-03-31T06:44:13.807Z,78.93
2019-03-31T06:46:42.271Z,78.22
2019-03-31T06:49:10.725Z,78.07
2019-03-31T06:51:39.203Z,78.21
2019-03-31T06:54:07.681Z,78.11
2019-03-31T06:56:36.122Z,77.75
2019-03-31T06:59:04.582Z,77.32
2019-03-31T07:01:33.015Z,77.02
2019-03-31T07:04:01.483Z,76.38
2019-03-31T07:06:32.091Z,76.20
2019-03-31T07:09:00.565Z,76.20
2019-03-31T07:11:29.005Z,75.40
2019-03-31T07:13:57.491Z,75.37
2019-03-31T07:16:25.938Z,74.52
2019-03-31T07:18:54.384Z,74.56
2019-03-31T07:21:22.863Z,74.18
2019-03-31T07:23:51.365Z,73.42
2019-03-31T07:26:19.814Z,73.21
2019-03-31T07:28:48.088Z,72.64
2019-03-31T07:31:16.532Z,72.43
2019-03-31T07:33:45.005Z,71.88
2019-03-31T07:36:13.441Z,70.62
2019-03-31T07:38:41.978Z,70.62
2019-03-31T07:41:12.883Z,70.08
2019-03-31T07:43:40.731Z,69.45
2019-03-31T07:46:09.192Z,70.11
2019-03-31T07:48:37.651Z,69.62
2019-03-31T07:51:06.125Z,70.63
2019-03-31T07:53:34.566Z,70.63
2019-03-31T07:56:03.008Z,70.65
2019-03-31T07:58:31.478Z,70.30
2019-03-31T08:00:59.890Z,69.97
2019-03-31T08:03:28.479Z,69.85
2019-03-31T08:05:57.086Z,69.85
2019-03-31T08:08:25.548Z,68.84
2019-03-31T08:10:53.987Z,69.05
2019-03-31T08:13:22.470Z,69.13
2019-03-31T08:15:50.921Z,69.53
2019-03-31T08:18:19.405Z,69.23
2019-03-31T08:20:47.863Z,69.72
2019-03-31T08:23:16.332Z,69.25
2019-03-31T08:25:44.765Z,69.25
2019-03-31T08:28:13.291Z,70.97
2019-03-31T08:30:41.750Z,70.91
2019-03-31T08:33:10.212Z,69.99
2019-03-31T08:35:47.115Z,69.75
2019-03-31T08:38:08.868Z,69.75
2019-03-31T08:40:37.378Z,69.31
2019-03-31T08:43:05.880Z,68.02
2019-03-31T08:45:34.343Z,67.53
2019-03-31T08:48:02.862Z,67.03
2019-03-31T08:50:34.483Z,66.34
2019-03-31T08:53:01.480Z,67.76
2019-03-31T08:55:29.965Z,66.49
2019-03-31T08:57:58.410Z,66.49
2019-03-31T09:00:34.462Z,66.30
2019-03-31T09:03:10.886Z,65.61
2019-03-31T09:05:39.290Z,66.49
2019-03-31T09:08:07.815Z,65.06
2019-03-31T09:10:36.309Z,65.32
2019-03-31T09:13:05.119Z,64.81
2019-03-31T09:15:33.554Z,64.81
2019-03-31T09:18:01.998Z,65.21
2019-03-31T09:20:30.468Z,64.55
2019-03-31T09:22:58.925Z,64.76
2019-03-31T09:25:27.382Z,66.04
2019-03-31T09:27:56.138Z,67.40
2019-03-31T09:30:24.606Z,67.40
2019-03-31T09:32:53.088Z,67.72
2019-03-31T09:35:21.519Z,67.49
2019-03-31T09:37:49.977Z,67.49
2019-03-31T09:40:18.734Z,67.59
2019-03-31T09:42:47.193Z,68.22
2019-03-31T09:45:15.754Z,68.48
2019-03-31T09:47:44.233Z,68.39
2019-03-31T09:50:17.258Z,68.53
2019-03-31T09:52:45.435Z,68.78
2019-03-31T09:55:13.903Z,69.94
2019-03-31T09:57:42.342Z,70.97
2019-03-31T10:00:13.712Z,70.89
2019-03-31T10:02:42.401Z,70.70
2019-03-31T10:05:11.460Z,69.35
2019-03-31T10:07:40.207Z,68.88
2019-03-31T10:10:10.844Z,68.55
2019-03-31T10:12:39.303Z,67.61
2019-03-31T10:15:09.319Z,65.85
2019-03-31T10:17:37.856Z,65.25
2019-03-31T10:20:06.770Z,64.77
2019-03-31T10:22:35.291Z,64.76
2019-03-31T10:25:05.084Z,64.76
2019-03-31T10:27:33.571Z,63.27
2019-03-31T10:30:02.001Z,63.27
2019-03-31T10:32:30.457Z,65.43
2019-03-31T10:34:59.009Z,65.43
2019-03-31T10:37:27.451Z,64.88
2019-03-31T10:39:55.909Z,64.43
2019-03-31T10:42:24.388Z,62.98
2019-03-31T10:44:52.834Z,62.29
2019-03-31T10:47:21.359Z,61.06
2019-03-31T10:49:49.822Z,60.36
2019-03-31T10:52:18.304Z,60.62
2019-03-31T10:54:46.782Z,61.32
2019-03-31T10:57:15.222Z,61.32
2019-03-31T10:59:43.706Z,60.40
2019-03-31T11:02:12.190Z,60.31
2019-03-31T11:04:40.622Z,60.31
2019-03-31T11:07:09.093Z,61.23
2019-03-31T11:09:37.546Z,61.73
2019-03-31T11:12:06.041Z,61.73
2019-03-31T11:14:34.521Z,61.13
2019-03-31T11:17:02.986Z,61.08
2019-03-31T11:19:31.442Z,61.10
2019-03-31T11:22:07.551Z,60.36
2019-03-31T11:24:36.007Z,59.16
2019-03-31T11:27:04.461Z,57.25
2019-03-31T11:29:32.897Z,57.24
2019-03-31T11:32:01.371Z,55.96
2019-03-31T11:34:29.828Z,56.49
2019-03-31T11:37:12.493Z,55.00
2019-03-31T11:39:28.483Z,53.57
2019-03-31T11:41:56.962Z,53.37
2019-03-31T11:44:27.643Z,51.09
2019-03-31T11:46:55.588Z,51.61
2019-03-31T11:49:24.035Z,50.95
2019-03-31T11:51:52.492Z,49.36
2019-03-31T11:54:20.924Z,49.75
2019-03-31T11:56:49.385Z,49.80
2019-03-31T11:59:20.712Z,49.86
2019-03-31T12:01:48.081Z,50.77
2019-03-31T12:04:16.524Z,51.45
2019-03-31T12:06:46.043Z,50.82
2019-03-31T12:09:14.570Z,50.98
2019-03-31T12:11:45.650Z,52.98
2019-03-31T12:14:13.242Z,52.26
2019-03-31T12:16:41.698Z,51.35
2019-03-31T12:19:10.629Z,51.07
2019-03-31T12:21:39.133Z,50.35
2019-03-31T12:24:07.603Z,50.33
2019-03-31T12:26:36.070Z,49.23
2019-03-31T12:29:04.518Z,49.48
2019-03-31T12:31:33.529Z,49.13
2019-03-31T12:34:01.970Z,47.00
2019-03-31T12:36:30.451Z,45.75
2019-03-31T12:38:58.925Z,45.75
2019-03-31T12:41:27.372Z,45.68
2019-03-31T12:43:55.833Z,44.71
2019-03-31T12:46:24.316Z,43.85
2019-03-31T12:48:52.837Z,43.11
2019-03-31T12:51:21.299Z,42.97
2019-03-31T12:53:51.251Z,41.62
2019-03-31T12:56:19.930Z,40.57
2019-03-31T12:58:48.465Z,40.29
2019-03-31T13:01:16.861Z,39.86
2019-03-31T13:03:45.351Z,40.39
2019-03-31T13:06:13.803Z,38.77
2019-03-31T13:08:42.235Z,39.22
2019-03-31T13:11:10.692Z,39.00
2019-03-31T13:13:39.249Z,39.83
2019-03-31T13:16:07.706Z,40.55
2019-03-31T13:18:36.179Z,40.08
2019-03-31T13:21:04.691Z,40.53
2019-03-31T13:23:33.147Z,40.47
2019-03-31T13:26:01.592Z,40.87
2019-03-31T13:28:30.134Z,40.19
2019-03-31T13:30:58.605Z,40.58
2019-03-31T13:33:27.038Z,40.60
2019-03-31T13:35:55.512Z,40.55
2019-03-31T13:38:24.057Z,40.27
2019-03-31T13:40:52.626Z,40.76
2019-03-31T13:43:21.081Z,40.90
2019-03-31T13:45:49.526Z,41.10
2019-03-31T13:48:17.971Z,40.88
2019-03-31T13:50:46.409Z,40.71
2019-03-31T13:53:16.483Z,39.81
2019-03-31T13:55:45.054Z,39.91
2019-03-31T13:58:14.254Z,39.16
2019-03-31T14:00:43.908Z,39.64
2019-03-31T14:03:12.426Z,40.55
2019-03-31T14:05:40.865Z,40.95
2019-03-31T14:08:09.303Z,41.00
2019-03-31T14:10:37.781Z,40.35
2019-03-31T14:13:06.210Z,40.17
2019-03-31T14:15:34.663Z,40.68
2019-03-31T14:18:03.436Z,39.96
2019-03-31T14:20:31.936Z,40.03
2019-03-31T14:23:00.368Z,39.27
2019-03-31T14:25:28.804Z,38.95
2019-03-31T14:27:57.292Z,39.13
2019-03-31T14:30:25.814Z,39.24
2019-03-31T14:32:54.245Z,38.90
2019-03-31T14:35:22.705Z,38.58
2019-03-31T14:37:51.186Z,38.71
2019-03-31T14:40:19.619Z,38.69
2019-03-31T14:42:48.090Z,39.74
2019-03-31T14:45:31.312Z,39.58
2019-03-31T14:48:01.131Z,39.22
2019-03-31T14:50:34.049Z,38.99
2019-03-31T14:53:02.678Z,38.92
2019-03-31T14:55:31.134Z,38.87
2019-03-31T14:57:59.763Z,38.99
2019-03-31T15:00:28.241Z,38.54
2019-03-31T15:02:57.556Z,38.53
2019-03-31T15:05:25.998Z,37.99
2019-03-31T15:07:54.448Z,36.82
2019-03-31T15:10:22.918Z,36.90
2019-03-31T15:12:51.424Z,36.87
2019-03-31T15:15:19.853Z,36.72
2019-03-31T15:17:48.338Z,36.91
2019-03-31T15:20:16.778Z,36.94
2019-03-31T15:22:45.246Z,36.74
2019-03-31T15:25:13.741Z,36.61
2019-03-31T15:27:42.196Z,36.09
2019-03-31T15:30:10.933Z,36.24
2019-03-31T15:32:39.377Z,36.11
2019-03-31T15:35:07.970Z,35.71
2019-03-31T15:37:36.444Z,35.55
2019-03-31T15:40:10.509Z,35.50
2019-03-31T15:42:39.054Z,35.46
2019-03-31T15:45:07.845Z,34.88
2019-03-31T15:47:36.363Z,34.88
2019-03-31T15:50:07.462Z,35.09
2019-03-31T15:52:35.902Z,35.02
2019-03-31T15:55:06.512Z,34.77
2019-03-31T15:57:34.942Z,34.90
2019-03-31T16:00:04.047Z,35.43
2019-03-31T16:02:32.546Z,35.68
2019-03-31T16:05:00.967Z,34.88
2019-03-31T16:07:29.390Z,34.31
2019-03-31T16:09:57.869Z,34.61
2019-03-31T16:12:26.281Z,35.19
2019-03-31T16:14:54.749Z,35.39
2019-03-31T16:17:23.209Z,35.87
2019-03-31T16:19:51.676Z,35.49
2019-03-31T16:22:20.144Z,35.42
2019-03-31T16:24:52.673Z,35.35
2019-03-31T16:27:21.135Z,35.94
2019-03-31T16:29:49.588Z,35.98
2019-03-31T16:32:18.039Z,35.86
2019-03-31T16:34:46.499Z,36.05
2019-03-31T16:37:14.961Z,36.26
2019-03-31T16:39:43.394Z,36.44
2019-03-31T16:42:12.009Z,36.25
2019-03-31T16:44:40.461Z,36.65
2019-03-31T16:47:08.949Z,37.48
2019-03-31T16:49:37.387Z,38.33
2019-03-31T16:52:05.920Z,38.47
2019-03-31T16:54:34.339Z,38.73
2019-03-31T16:57:02.811Z,39.21
2019-03-31T16:59:31.303Z,39.00
2019-03-31T17:01:59.774Z,39.00
2019-03-31T17:04:28.210Z,38.30
2019-03-31T17:06:56.840Z,38.94
2019-03-31T17:09:25.339Z,38.04
2019-03-31T17:11:53.808Z,38.04
2019-03-31T17:14:22.287Z,37.56
2019-03-31T17:16:50.744Z,36.48
2019-03-31T17:19:19.248Z,36.48
2019-03-31T17:21:47.727Z,37.16
2019-03-31T17:24:16.331Z,37.16
2019-03-31T17:26:44.766Z,36.25
2019-03-31T17:29:13.221Z,36.25
2019-03-31T17:31:41.707Z,36.76
2019-03-31T17:34:10.132Z,37.09
2019-03-31T17:36:41.004Z,37.10
2019-03-31T17:39:08.812Z,37.38
2019-03-31T17:41:37.257Z,38.23
2019-03-31T17:44:05.884Z,38.23
2019-03-31T17:46:34.313Z,38.47
2019-03-31T17:49:02.740Z,38.87
2019-03-31T17:51:31.208Z,39.24
2019-03-31T17:53:59.629Z,39.80
2019-03-31T17:56:28.065Z,40.30
2019-03-31T17:58:56.526Z,40.74
2019-03-31T18:01:24.996Z,40.91
2019-03-31T18:03:53.465Z,41.36
2019-03-31T18:06:21.981Z,41.33
2019-03-31T18:08:50.430Z,41.68
2019-03-31T18:11:18.878Z,41.40
2019-03-31T18:13:47.337Z,41.62
2019-03-31T18:16:15.785Z,41.96
2019-03-31T18:18:44.314Z,42.32
2019-03-31T18:21:12.758Z,42.32
2019-03-31T18:23:41.217Z,42.08
2019-03-31T18:26:09.679Z,41.92
2019-03-31T18:28:38.128Z,42.10
2019-03-31T18:31:06.618Z,42.26
2019-03-31T18:33:35.047Z,42.03
2019-03-31T18:36:03.477Z,41.98
2019-03-31T18:38:31.924Z,42.11
2019-03-31T18:41:03.485Z,42.11
2019-03-31T18:43:30.570Z,42.17
2019-03-31T18:45:59.035Z,42.49
2019-03-31T18:48:27.467Z,42.33
2019-03-31T18:50:55.966Z,42.95
2019-03-31T18:53:41.050Z,43.00
2019-03-31T18:56:27.683Z,42.99
2019-03-31T18:59:13.948Z,43.56
2019-03-31T19:01:46.637Z,43.87
2019-03-31T19:04:29.021Z,43.54
2019-03-31T19:06:59.104Z,43.48
2019-03-31T19:09:35.156Z,43.15
2019-03-31T19:12:20.043Z,42.48
2019-03-31T19:15:01.951Z,42.77
2019-03-31T19:17:49.629Z,42.49
2019-03-31T19:20:28.785Z,42.81
2019-03-31T19:23:15.214Z,42.58
2019-03-31T19:25:45.315Z,43.08
2019-03-31T19:28:18.370Z,43.82
2019-03-31T19:31:06.538Z,43.93
2019-03-31T19:33:48.329Z,43.49
2019-03-31T19:36:19.723Z,43.48
2019-03-31T19:39:05.800Z,43.51
2019-03-31T19:41:52.926Z,43.77
2019-03-31T19:44:23.014Z,44.09
2019-03-31T19:46:58.533Z,43.96
2019-03-31T19:49:43.641Z,43.43
2019-03-31T19:52:29.840Z,43.24
2019-03-31T19:55:02.659Z,42.78
2019-03-31T19:57:41.836Z,43.29
2019-03-31T20:00:17.091Z,43.96
2019-03-31T20:02:47.416Z,44.61
2019-03-31T20:05:17.494Z,44.65
2019-03-31T20:07:49.232Z,43.93
2019-03-31T20:10:22.374Z,44.54
2019-03-31T20:12:52.501Z,44.64
2019-03-31T20:15:25.509Z,44.77
2019-03-31T20:17:55.589Z,45.07
2019-03-31T20:20:28.389Z,44.93
2019-03-31T20:23:00.960Z,45.34
2019-03-31T20:25:40.244Z,45.45
2019-03-31T20:28:13.044Z,45.86
2019-03-31T20:30:43.172Z,46.00
2019-03-31T20:33:19.329Z,46.55
2019-03-31T20:36:07.226Z,45.92
2019-03-31T20:38:49.871Z,46.17
2019-03-31T20:41:28.955Z,46.21
2019-03-31T20:43:57.489Z,45.68
2019-03-31T20:46:25.945Z,46.41
2019-03-31T20:48:54.410Z,46.56
2019-03-31T20:51:22.907Z,46.53
2019-03-31T20:53:51.349Z,45.97
2019-03-31T20:56:19.784Z,46.02
2019-03-31T20:58:48.263Z,46.41
2019-03-31T21:01:16.730Z,46.95
2019-03-31T21:03:45.172Z,46.64
2019-03-31T21:06:13.642Z,46.70
2019-03-31T21:08:42.106Z,46.03
2019-03-31T21:11:10.568Z,46.23
2019-03-31T21:13:39.000Z,46.17
2019-03-31T21:16:07.465Z,46.01
2019-03-31T21:18:35.901Z,46.32
2019-03-31T21:21:04.364Z,46.55
2019-03-31T21:23:33.732Z,46.78
2019-03-31T21:26:02.211Z,46.74
2019-03-31T21:28:30.693Z,46.90
2019-03-31T21:30:59.170Z,46.80
2019-03-31T21:33:27.608Z,46.99
2019-03-31T21:35:56.066Z,46.96
2019-03-31T21:38:24.525Z,47.21
2019-03-31T21:40:53.065Z,47.76
2019-03-31T21:43:21.526Z,47.76
2019-03-31T21:45:49.991Z,47.81
2019-03-31T21:48:18.461Z,47.83
2019-03-31T21:50:46.924Z,48.03
2019-03-31T21:53:15.395Z,48.24
2019-03-31T21:55:43.832Z,48.05
2019-03-31T21:58:12.489Z,48.32
2019-03-31T22:00:48.254Z,49.12
2019-03-31T22:03:16.710Z,49.14
2019-03-31T22:05:45.143Z,49.81
2019-03-31T22:08:13.681Z,50.14
2019-03-31T22:10:42.103Z,50.45
2019-03-31T22:13:10.541Z,50.40
2019-03-31T22:15:39.029Z,50.88
2019-03-31T22:18:07.448Z,50.64
2019-03-31T22:20:35.895Z,51.35
2019-03-31T22:23:04.357Z,51.52
2019-03-31T22:25:32.785Z,51.87
2019-03-31T22:28:01.234Z,51.63
2019-03-31T22:30:29.692Z,51.61
2019-03-31T22:32:58.136Z,51.82
2019-03-31T22:35:26.753Z,51.64
2019-03-31T22:37:55.222Z,51.72
2019-03-31T22:40:23.658Z,51.91
2019-03-31T22:42:52.094Z,51.49
2019-03-31T22:45:20.546Z,51.80
2019-03-31T22:47:48.996Z,52.60
2019-03-31T22:50:17.514Z,53.08
2019-03-31T22:52:45.975Z,53.76
2019-03-31T22:55:14.456Z,53.79
2019-03-31T22:57:42.905Z,53.80
2019-03-31T23:00:14.040Z,54.75
2019-03-31T23:02:42.482Z,54.42
2019-03-31T23:05:10.948Z,54.95
2019-03-31T23:07:39.365Z,53.85
2019-03-31T23:10:07.968Z,53.63
2019-03-31T23:12:36.440Z,53.62
2019-03-31T23:15:06.808Z,54.32
2019-03-31T23:17:35.265Z,54.41
2019-03-31T23:20:03.898Z,53.96
2019-03-31T23:22:32.348Z,54.23
2019-03-31T23:25:00.964Z,54.13
2019-03-31T23:27:29.495Z,53.94
2019-03-31T23:29:57.938Z,53.68
2019-03-31T23:32:26.360Z,53.64
2019-03-31T23:34:54.821Z,53.98
2019-03-31T23:37:23.252Z,55.30
2019-03-31T23:39:51.728Z,55.74
2019-03-31T23:42:20.162Z,56.69
2019-03-31T23:44:48.613Z,57.72
2019-03-31T23:47:17.058Z,57.87
2019-03-31T23:49:45.519Z,58.01
2019-03-31T23:52:13.954Z,57.91
2019-03-31T23:54:42.380Z,58.82
2019-03-31T23:57:10.833Z,58.63
2019-03-31T23:59:39.280Z,59.32
